Byromville, Georgia
Current Conditions -  °F | °C
As of 8:15 AM on Thursday 27 Nov 2014 (Local Time) from KACJ Reporting Station
Clear Clear  
Wind Chill: 39°   Ceiling: Unl
Heat Index: 43°   Visibility: 10mi
Dew Point: 32°   Wind: 7mph
Humidity: 66%   Direction: 280°W
Pressure: 30.28"   Gusts: NA
Location:  32.2°N, 83.91°W
Report Text: KACJ 271315Z AUTO 28006KT 10SM CLR 06/00 A3028 RMK AO2
Loading
Personal Weather Stations






























Interactive Weather Map New forecast layout! Learn more

10-Day Weather Forecast

Advertisements
Track Severe Weather on mobile